KRDR/RDR METAR and TAF weather

Enter ICAO airport designator
Station Type Date Time Source
KRDR METAR 2019/08/21 02:56 UTC NOAA

KRDR 210256Z AUTO 30005KT 10SM CLR 13/10 A3008 RMK AO2 SLP192 T01300102 53008


Station Type Date Time Source
KRDR Decoded METAR 2019/08/21 02:56 UTC NOAA

Station name not available
Aug 20, 2019 - 10:56 PM EDT / 2019.08.21 0256 UTC
Wind: from the WNW (300 degrees) at 6 MPH (5 KT):0
Visibility: 10 mile(s):0
Sky conditions: clear
Temperature: 55.4 F (13.0 C)
Dew Point: 50.4 F (10.2 C)
Relative Humidity: 83%
Pressure (altimeter): 30.08 in. Hg (1018 hPa)
Pressure tendency: 0.02 inches (0.8 hPa) higher than three hours ago
ob: KRDR 210256Z AUTO 30005KT 10SM CLR 13/10 A3008 RMK AO2 SLP192 T01300102 53008
cycle: 3

Station Type Date Time Source
KRDR TAF 2019/08/21 02:03 UTC NOAA

TAF TAF KRDR 210200Z 2102/2208 VRB06KT 9999 FEW045 QNH3006INS TX21/2121Z TN12/2111Z

Example: see airport list